createdAt,value
2018-11-20T00:02:47.568Z,10.07
2018-11-20T00:05:47.979Z,12.37
2018-11-20T00:08:37.698Z,9.87
2018-11-20T00:11:35.483Z,9.57
2018-11-20T00:14:22.840Z,13.33
2018-11-20T00:17:07.739Z,13.10
2018-11-20T00:19:47.771Z,12.67
2018-11-20T00:22:35.660Z,13.87
2018-11-20T00:25:26.061Z,12.93
2018-11-20T00:28:23.650Z,11.33
2018-11-20T00:31:13.060Z,10.77
2018-11-20T00:34:00.448Z,11.13
2018-11-20T00:36:48.844Z,12.70
2018-11-20T00:39:50.144Z,13.87
2018-11-20T00:42:38.915Z,13.40
2018-11-20T00:45:19.299Z,12.73
2018-11-20T00:48:07.556Z,11.77
2018-11-20T00:50:47.527Z,13.73
2018-11-20T00:53:54.883Z,13.40
2018-11-20T00:57:04.217Z,13.73
2018-11-20T00:59:44.046Z,12.83
2018-11-20T01:02:48.767Z,12.10
2018-11-20T01:05:37.143Z,12.93
2018-11-20T01:08:25.699Z,13.23
2018-11-20T01:11:06.915Z,10.73
2018-11-20T01:14:00.208Z,11.13
2018-11-20T01:16:43.383Z,10.63
2018-11-20T01:19:41.666Z,11.30
2018-11-20T01:22:31.049Z,12.97
2018-11-20T01:25:11.238Z,11.00
2018-11-20T01:27:59.534Z,13.33
2018-11-20T01:30:47.796Z,11.70
2018-11-20T01:33:35.811Z,13.67
2018-11-20T01:36:34.631Z,14.13
2018-11-20T01:39:33.790Z,14.50
2018-11-20T01:42:21.875Z,12.10
2018-11-20T01:45:15.923Z,11.93
2018-11-20T01:48:00.510Z,14.27
2018-11-20T01:50:48.564Z,9.23
2018-11-20T01:53:32.629Z,15.13
2018-11-20T01:56:20.694Z,13.83
2018-11-20T01:59:08.023Z,13.27
2018-11-20T02:01:56.137Z,14.50
2018-11-20T02:04:54.559Z,12.93
2018-11-20T02:07:42.710Z,13.93
2018-11-20T02:10:32.099Z,12.03
2018-11-20T02:14:03.667Z,14.73
2018-11-20T02:17:02.888Z,14.87
2018-11-20T02:19:50.798Z,15.03
2018-11-20T02:22:42.827Z,13.73
2018-11-20T02:25:26.428Z,15.50
2018-11-20T02:28:14.383Z,13.47
2018-11-20T02:31:15.739Z,14.13
2018-11-20T02:34:03.926Z,15.73
2018-11-20T02:36:52.018Z,14.93
2018-11-20T02:39:39.913Z,16.27
2018-11-20T02:42:35.388Z,14.90
2018-11-20T02:45:24.057Z,16.00
2018-11-20T02:48:16.046Z,15.97
2018-11-20T02:51:11.387Z,14.73
2018-11-20T02:53:59.402Z,15.30
2018-11-20T02:56:49.448Z,14.57
2018-11-20T02:59:37.214Z,14.23
2018-11-20T03:02:25.621Z,16.40
2018-11-20T03:05:33.223Z,16.40
2018-11-20T03:08:28.668Z,15.20
2018-11-20T03:11:24.234Z,11.60
2018-11-20T03:14:16.475Z,16.03
2018-11-20T03:17:04.701Z,14.63
2018-11-20T03:20:09.431Z,13.83
2018-11-20T03:22:59.094Z,15.97
2018-11-20T03:26:07.879Z,15.20
2018-11-20T03:29:11.191Z,16.60
2018-11-20T03:31:53.774Z,16.83
2018-11-20T03:34:42.119Z,16.47
2018-11-20T03:37:30.501Z,15.23
2018-11-20T03:40:22.537Z,16.20
2018-11-20T03:43:11.870Z,17.50
2018-11-20T03:46:00.091Z,16.90
2018-11-20T03:48:48.267Z,16.63
2018-11-20T03:51:37.701Z,18.43
2018-11-20T03:54:24.851Z,16.77
2018-11-20T03:57:17.934Z,14.97
2018-11-20T04:00:07.335Z,16.57
2018-11-20T04:02:53.116Z,15.60
2018-11-20T04:05:39.463Z,16.43
2018-11-20T04:08:27.335Z,17.77
2018-11-20T04:11:28.927Z,16.03
2018-11-20T04:14:10.973Z,14.97
2018-11-20T04:17:00.910Z,15.80
2018-11-20T04:19:49.178Z,17.33
2018-11-20T04:22:56.797Z,17.33
2018-11-20T04:26:01.236Z,16.70
2018-11-20T04:28:56.448Z,13.07
2018-11-20T04:32:16.893Z,16.73
2018-11-20T04:35:08.607Z,15.50
2018-11-20T04:37:57.984Z,14.07
2018-11-20T04:40:50.086Z,11.90
2018-11-20T04:43:39.460Z,15.20
2018-11-20T04:46:27.590Z,15.07
2018-11-20T04:49:35.711Z,14.50
2018-11-20T04:52:25.174Z,14.50
2018-11-20T04:55:20.594Z,17.73
2018-11-20T04:58:22.224Z,17.83
2018-11-20T05:01:10.593Z,15.17
2018-11-20T05:03:54.300Z,17.33
2018-11-20T05:06:35.159Z,16.40
2018-11-20T05:09:42.780Z,18.60
2018-11-20T05:12:30.942Z,16.83
2018-11-20T05:15:38.291Z,17.40
2018-11-20T05:18:26.576Z,16.33
2018-11-20T05:21:11.446Z,17.33
2018-11-20T05:24:00.425Z,17.60
2018-11-20T05:26:59.338Z,16.40
2018-11-20T05:30:04.143Z,15.47
2018-11-20T05:32:48.351Z,16.57
2018-11-20T05:35:48.712Z,15.20
2018-11-20T05:38:40.699Z,18.27
2018-11-20T05:41:35.816Z,17.17
2018-11-20T05:44:25.382Z,17.50
2018-11-20T05:47:13.295Z,11.93
2018-11-20T05:50:01.984Z,17.60
2018-11-20T05:52:49.774Z,15.03
2018-11-20T05:55:39.159Z,17.50
2018-11-20T05:58:28.541Z,16.53
2018-11-20T06:01:10.283Z,16.73
2018-11-20T06:04:02.825Z,17.40
2018-11-20T06:06:54.777Z,15.87
2018-11-20T06:09:43.045Z,17.10
2018-11-20T06:12:31.426Z,17.50
2018-11-20T06:15:23.771Z,16.13
2018-11-20T06:18:19.309Z,15.50
2018-11-20T06:21:07.466Z,18.00
2018-11-20T06:24:06.070Z,16.97
2018-11-20T06:27:01.264Z,16.73
2018-11-20T06:29:49.263Z,16.80
2018-11-20T06:32:50.670Z,16.40
2018-11-20T06:35:52.140Z,16.57
2018-11-20T06:38:37.681Z,15.33
2018-11-20T06:41:25.905Z,18.07
2018-11-20T06:44:13.937Z,16.83
2018-11-20T06:47:21.489Z,15.63
2018-11-20T06:50:09.694Z,16.57
2018-11-20T06:53:01.736Z,15.87
2018-11-20T06:56:00.949Z,17.13
2018-11-20T06:58:52.624Z,15.70
2018-11-20T07:01:44.698Z,15.80
2018-11-20T07:04:32.833Z,16.33
2018-11-20T07:07:25.326Z,16.07
2018-11-20T07:10:13.837Z,16.60
2018-11-20T07:13:02.082Z,17.00
2018-11-20T07:15:50.657Z,15.63
2018-11-20T07:18:38.775Z,16.27
2018-11-20T07:21:17.837Z,13.83
2018-11-20T07:24:05.987Z,15.13
2018-11-20T07:26:44.314Z,13.40
2018-11-20T07:29:32.596Z,15.17
2018-11-20T07:32:27.581Z,16.27
2018-11-20T07:35:26.751Z,15.63
2018-11-20T07:38:18.927Z,16.30
2018-11-20T07:41:00.235Z,16.33
2018-11-20T07:43:48.596Z,15.43
2018-11-20T07:46:36.513Z,13.90
2018-11-20T07:49:29.222Z,13.80
2018-11-20T07:52:17.558Z,14.73
2018-11-20T07:55:06.974Z,15.23
2018-11-20T07:57:54.804Z,15.03
2018-11-20T08:00:42.967Z,14.93
2018-11-20T08:03:33.846Z,15.37
2018-11-20T08:06:38.411Z,15.20
2018-11-20T08:09:36.728Z,12.80
2018-11-20T08:12:34.991Z,15.50
2018-11-20T08:15:29.987Z,15.60
2018-11-20T08:18:10.672Z,12.40
2018-11-20T08:21:01.505Z,11.40
2018-11-20T08:23:59.945Z,13.23
2018-11-20T08:26:52.636Z,11.97
2018-11-20T08:29:40.791Z,14.63
2018-11-20T08:32:28.802Z,9.63
2018-11-20T08:35:20.922Z,8.60
2018-11-20T08:38:08.859Z,15.63
2018-11-20T08:40:53.605Z,14.90
2018-11-20T08:43:44.788Z,15.43
2018-11-20T08:46:32.954Z,10.00
2018-11-20T08:49:22.416Z,13.17
2018-11-20T08:52:10.610Z,15.37
2018-11-20T08:54:58.688Z,14.93
2018-11-20T08:57:56.502Z,14.63
2018-11-20T09:00:37.336Z,10.43
2018-11-20T09:03:44.924Z,14.80
2018-11-20T09:06:40.134Z,14.30
2018-11-20T09:09:26.176Z,14.40
2018-11-20T09:12:13.998Z,14.23
2018-11-20T09:15:01.991Z,12.37
2018-11-20T09:17:42.561Z,13.13
2018-11-20T09:20:31.085Z,10.80
2018-11-20T09:23:35.870Z,14.47
2018-11-20T09:26:28.026Z,14.00
2018-11-20T09:29:35.436Z,11.23
2018-11-20T09:32:11.639Z,15.27
2018-11-20T09:35:03.810Z,13.73
2018-11-20T09:37:51.706Z,13.60
2018-11-20T09:41:12.842Z,12.90
2018-11-20T09:44:08.082Z,10.13
2018-11-20T09:47:06.652Z,12.00
2018-11-20T09:50:02.392Z,13.50
2018-11-20T09:52:59.639Z,14.10
2018-11-20T09:55:47.535Z,12.73
2018-11-20T09:58:42.802Z,13.37
2018-11-20T10:01:39.976Z,13.50
2018-11-20T10:04:27.934Z,14.23
2018-11-20T10:07:29.615Z,13.20
2018-11-20T10:10:28.076Z,13.60
2018-11-20T10:13:18.140Z,14.17
2018-11-20T10:16:16.490Z,13.60
2018-11-20T10:19:04.567Z,13.80
2018-11-20T10:21:52.596Z,13.53
2018-11-20T10:24:40.670Z,9.97
2018-11-20T10:27:29.103Z,13.73
2018-11-20T10:30:17.647Z,12.97
2018-11-20T10:33:06.291Z,13.80
2018-11-20T10:35:54.480Z,12.63
2018-11-20T10:38:43.938Z,12.20
2018-11-20T10:41:39.319Z,12.30
2018-11-20T10:44:23.045Z,13.70
2018-11-20T10:47:27.764Z,12.83
2018-11-20T10:50:15.991Z,13.60
2018-11-20T10:53:11.118Z,13.10
2018-11-20T10:56:03.551Z,13.47
2018-11-20T10:58:52.968Z,12.70
2018-11-20T11:01:41.435Z,12.50
2018-11-20T11:04:29.416Z,13.40
2018-11-20T11:07:18.905Z,12.30
2018-11-20T11:09:54.678Z,9.93
2018-11-20T11:12:43.175Z,12.83
2018-11-20T11:15:35.465Z,13.27
2018-11-20T11:18:30.649Z,13.07
2018-11-20T11:21:32.167Z,12.53
2018-11-20T11:24:24.288Z,12.40
2018-11-20T11:27:16.495Z,10.57
2018-11-20T11:30:12.393Z,12.67
2018-11-20T11:33:10.796Z,11.17
2018-11-20T11:35:54.141Z,13.83
2018-11-20T11:38:43.081Z,13.90
2018-11-20T11:41:38.230Z,13.07
2018-11-20T11:44:26.539Z,12.83
2018-11-20T11:47:14.978Z,13.17
2018-11-20T11:50:03.329Z,14.77
2018-11-20T11:52:52.762Z,15.03
2018-11-20T11:55:41.074Z,13.83
2018-11-20T11:58:27.998Z,15.63
2018-11-20T12:01:17.157Z,11.90
2018-11-20T12:03:56.776Z,13.93
2018-11-20T12:06:45.028Z,14.90
2018-11-20T12:09:46.299Z,15.57
2018-11-20T12:12:44.601Z,16.90
2018-11-20T12:15:35.763Z,15.33
2018-11-20T12:18:23.903Z,16.43
2018-11-20T12:21:10.755Z,15.27
2018-11-20T12:23:58.607Z,15.90
2018-11-20T12:27:04.429Z,14.80
2018-11-20T12:29:58.560Z,15.00
2018-11-20T12:32:53.255Z,14.87
2018-11-20T12:35:44.049Z,15.07
2018-11-20T12:38:33.880Z,15.93
2018-11-20T12:41:30.973Z,14.73
2018-11-20T12:44:18.165Z,15.20
2018-11-20T12:47:09.120Z,15.60
2018-11-20T12:50:26.246Z,15.43
2018-11-20T12:53:13.800Z,14.37
2018-11-20T12:55:58.491Z,13.33
2018-11-20T12:58:39.653Z,15.40
2018-11-20T13:01:45.916Z,15.53
2018-11-20T13:04:32.748Z,15.47
2018-11-20T13:07:40.764Z,16.03
2018-11-20T13:10:39.824Z,14.33
2018-11-20T13:13:34.096Z,15.87
2018-11-20T13:16:22.315Z,16.40
2018-11-20T13:19:22.685Z,15.20
2018-11-20T13:22:26.006Z,15.30
2018-11-20T13:25:32.702Z,16.00
2018-11-20T13:28:19.492Z,15.07
2018-11-20T13:31:07.367Z,13.77
2018-11-20T13:34:01.110Z,14.40
2018-11-20T13:36:48.326Z,15.90
2018-11-20T13:39:51.996Z,15.10
2018-11-20T13:42:32.465Z,15.83
2018-11-20T13:45:20.638Z,15.20
2018-11-20T13:48:14.591Z,13.97
2018-11-20T13:51:01.362Z,14.80
2018-11-20T13:53:55.612Z,15.07
2018-11-20T13:56:42.745Z,14.20
2018-11-20T13:59:33.002Z,13.53
2018-11-20T14:02:19.977Z,13.50
2018-11-20T14:05:06.888Z,14.23
2018-11-20T14:07:54.062Z,14.17
2018-11-20T14:10:44.296Z,13.73
2018-11-20T14:13:32.501Z,12.47
2018-11-20T14:16:19.393Z,13.00
2018-11-20T14:19:06.671Z,12.37
2018-11-20T14:22:01.479Z,12.90
2018-11-20T14:24:49.024Z,12.53
2018-11-20T14:27:28.574Z,13.70
2018-11-20T14:30:13.046Z,13.00
2018-11-20T14:33:10.110Z,12.00
2018-11-20T14:35:56.953Z,12.30
2018-11-20T14:38:53.079Z,13.33
2018-11-20T14:41:40.388Z,11.97
2018-11-20T14:44:31.109Z,12.30
2018-11-20T14:47:18.300Z,11.43
2018-11-20T14:49:56.852Z,12.63
2018-11-20T14:52:54.168Z,12.77
2018-11-20T14:55:45.073Z,11.97
2018-11-20T14:58:42.272Z,12.53
2018-11-20T15:01:36.926Z,11.70
2018-11-20T15:04:21.272Z,12.47
2018-11-20T15:06:55.153Z,8.83
2018-11-20T15:09:42.172Z,10.87
2018-11-20T15:12:33.315Z,9.40
2018-11-20T15:15:20.747Z,11.60
2018-11-20T15:18:02.809Z,12.70
2018-11-20T15:20:56.336Z,11.47
2018-11-20T15:23:52.595Z,11.37
2018-11-20T15:26:50.059Z,10.17
2018-11-20T15:29:27.522Z,11.40
2018-11-20T15:32:13.728Z,12.23
2018-11-20T15:35:17.171Z,11.90
2018-11-20T15:38:04.180Z,11.47
2018-11-20T15:41:01.545Z,11.57
2018-11-20T15:43:52.675Z,11.83
2018-11-20T15:46:40.302Z,12.30
2018-11-20T15:49:37.281Z,12.20
2018-11-20T15:52:37.444Z,10.77
2018-11-20T15:55:32.690Z,11.63
2018-11-20T15:58:19.613Z,11.67
2018-11-20T16:01:23.148Z,11.80
2018-11-20T16:04:13.885Z,11.70
2018-11-20T16:07:01.670Z,11.47
2018-11-20T16:09:42.565Z,11.63
2018-11-20T16:12:29.756Z,11.43
2018-11-20T16:15:31.971Z,11.13
2018-11-20T16:18:38.338Z,11.03
2018-11-20T16:21:23.646Z,11.53
2018-11-20T16:24:09.332Z,11.10
2018-11-20T16:26:57.573Z,10.50
2018-11-20T16:29:48.704Z,11.47
2018-11-20T16:32:35.425Z,12.00
2018-11-20T16:35:26.411Z,11.63
2018-11-20T16:38:05.093Z,11.47
2018-11-20T16:40:59.074Z,10.40
2018-11-20T16:43:49.996Z,11.50
2018-11-20T16:46:53.274Z,12.03
2018-11-20T16:49:47.484Z,12.10
2018-11-20T16:52:54.213Z,11.10
2018-11-20T16:55:51.528Z,11.40
2018-11-20T16:58:39.750Z,12.10
2018-11-20T17:01:27.996Z,12.47
2018-11-20T17:04:14.699Z,11.10
2018-11-20T17:07:02.017Z,12.33
2018-11-20T17:09:56.293Z,11.70
2018-11-20T17:12:43.331Z,12.80
2018-11-20T17:15:25.922Z,13.27
2018-11-20T17:18:17.178Z,13.03
2018-11-20T17:21:18.326Z,11.80
2018-11-20T17:24:06.601Z,12.63
2018-11-20T17:27:06.656Z,12.00
2018-11-20T17:29:53.505Z,11.73
2018-11-20T17:33:00.070Z,13.43
2018-11-20T17:35:53.806Z,12.97
2018-11-20T17:38:46.618Z,12.90
2018-11-20T17:41:38.121Z,12.70
2018-11-20T17:44:26.507Z,12.57
2018-11-20T17:47:13.237Z,13.13
2018-11-20T17:50:10.646Z,12.60
2018-11-20T17:52:57.728Z,12.47
2018-11-20T17:55:45.935Z,12.67
2018-11-20T17:58:32.868Z,12.20
2018-11-20T18:01:21.100Z,11.90
2018-11-20T18:04:12.035Z,11.67
2018-11-20T18:06:49.001Z,11.97
2018-11-20T18:09:43.030Z,12.20
2018-11-20T18:12:34.192Z,12.37
2018-11-20T18:15:21.074Z,12.07
2018-11-20T18:18:12.524Z,12.90
2018-11-20T18:21:06.417Z,11.93
2018-11-20T18:24:00.231Z,12.70
2018-11-20T18:26:52.272Z,13.63
2018-11-20T18:29:55.562Z,14.50
2018-11-20T18:32:42.725Z,13.77
2018-11-20T18:35:33.632Z,13.27
2018-11-20T18:38:30.935Z,14.53
2018-11-20T18:41:17.676Z,12.57
2018-11-20T18:44:04.504Z,13.70
2018-11-20T18:46:43.025Z,13.03
2018-11-20T18:49:34.051Z,12.83
2018-11-20T18:52:37.274Z,11.93
2018-11-20T18:55:20.845Z,13.03
2018-11-20T18:58:07.740Z,12.37
2018-11-20T19:00:54.878Z,12.00
2018-11-20T19:03:50.390Z,13.33
2018-11-20T19:06:56.716Z,13.87
2018-11-20T19:09:43.402Z,12.63
2018-11-20T19:12:30.386Z,12.20
2018-11-20T19:15:17.499Z,11.33
2018-11-20T19:18:04.470Z,12.47
2018-11-20T19:20:52.629Z,11.57
2018-11-20T19:23:52.705Z,11.67
2018-11-20T19:26:52.634Z,11.23
2018-11-20T19:29:43.621Z,11.40
2018-11-20T19:32:25.693Z,11.47
2018-11-20T19:35:02.803Z,11.67
2018-11-20T19:37:49.908Z,12.27
2018-11-20T19:40:40.934Z,11.97
2018-11-20T19:43:26.288Z,11.77
2018-11-20T19:46:08.431Z,13.47
2018-11-20T19:48:56.946Z,11.80
2018-11-20T19:52:00.781Z,10.00
2018-11-20T19:54:48.893Z,11.73
2018-11-20T19:57:35.969Z,11.63
2018-11-20T20:00:26.730Z,10.97
2018-11-20T20:03:26.711Z,11.70
2018-11-20T20:06:26.737Z,11.13
2018-11-20T20:09:15.783Z,11.07
2018-11-20T20:12:03.962Z,10.87
2018-11-20T20:14:55.129Z,11.27
2018-11-20T20:17:49.430Z,11.63
2018-11-20T20:20:44.272Z,12.13
2018-11-20T20:23:30.902Z,11.73
2018-11-20T20:26:17.942Z,11.77
2018-11-20T20:28:59.884Z,12.03
2018-11-20T20:31:58.097Z,11.30
2018-11-20T20:34:55.405Z,11.30
2018-11-20T20:37:42.670Z,11.17
2018-11-20T20:40:39.584Z,11.80
2018-11-20T20:43:26.518Z,11.57
2018-11-20T20:46:14.701Z,11.40
2018-11-20T20:49:01.385Z,12.07
2018-11-20T20:51:52.173Z,11.40
2018-11-20T20:54:39.136Z,10.77
2018-11-20T20:57:27.286Z,11.63
2018-11-20T21:00:19.405Z,12.23
2018-11-20T21:03:02.768Z,12.40
2018-11-20T21:05:50.949Z,12.20
2018-11-20T21:08:37.612Z,11.40
2018-11-20T21:11:43.729Z,11.33
2018-11-20T21:14:40.740Z,12.33
2018-11-20T21:17:27.481Z,12.07
2018-11-20T21:20:16.017Z,12.90
2018-11-20T21:23:13.137Z,11.40
2018-11-20T21:26:07.353Z,12.20
2018-11-20T21:28:55.843Z,10.90
2018-11-20T21:31:55.766Z,12.47
2018-11-20T21:35:02.172Z,11.70
2018-11-20T21:38:05.169Z,9.27
2018-11-20T21:41:10.504Z,12.17
2018-11-20T21:44:07.328Z,12.27
2018-11-20T21:46:55.539Z,12.87
2018-11-20T21:50:01.893Z,12.70
2018-11-20T21:52:48.835Z,12.97
2018-11-20T21:55:37.145Z,13.50
2018-11-20T21:58:25.233Z,13.97
2018-11-20T22:01:29.573Z,12.70
2018-11-20T22:04:36.220Z,13.33
2018-11-20T22:07:13.657Z,14.00
2018-11-20T22:10:14.227Z,13.90
2018-11-20T22:13:20.372Z,13.70
2018-11-20T22:16:07.240Z,13.23
2018-11-20T22:18:54.094Z,13.50
2018-11-20T22:21:51.468Z,14.03
2018-11-20T22:24:45.409Z,13.93
2018-11-20T22:27:52.020Z,14.73
2018-11-20T22:30:42.874Z,15.23
2018-11-20T22:33:29.909Z,15.47
2018-11-20T22:36:07.099Z,13.53
2018-11-20T22:39:00.929Z,13.37
2018-11-20T22:41:47.634Z,12.80
2018-11-20T22:44:48.067Z,13.27
2018-11-20T22:47:42.184Z,14.17
2018-11-20T22:50:39.506Z,16.67
2018-11-20T22:53:20.542Z,16.40
2018-11-20T22:56:14.739Z,13.70
2018-11-20T22:58:54.841Z,12.13
2018-11-20T23:01:37.713Z,14.07
2018-11-20T23:04:24.437Z,14.87
2018-11-20T23:07:11.735Z,13.33
2018-11-20T23:09:40.859Z,14.27
2018-11-20T23:12:09.989Z,13.50
2018-11-20T23:14:39.132Z,13.30
2018-11-20T23:17:08.224Z,14.30
2018-11-20T23:19:37.314Z,14.57
2018-11-20T23:22:06.479Z,14.33
2018-11-20T23:24:35.572Z,16.37
2018-11-20T23:27:05.100Z,15.93
2018-11-20T23:29:34.243Z,16.33
2018-11-20T23:32:03.721Z,15.90
2018-11-20T23:34:32.822Z,17.47
2018-11-20T23:37:01.966Z,16.50
2018-11-20T23:39:31.052Z,16.43
2018-11-20T23:42:00.189Z,16.80
2018-11-20T23:44:29.644Z,16.37
2018-11-20T23:46:58.755Z,16.60
2018-11-20T23:49:27.856Z,17.07
2018-11-20T23:51:57.024Z,17.10
2018-11-20T23:54:26.132Z,17.07
2018-11-20T23:56:55.253Z,17.17
2018-11-20T23:59:24.463Z,18.00
